Time;durP1;ratioP1;P1;durP2;ratioP2;P2;SDS_P1;SDS_P2;PMS_P1;PMS_P2;Temp;Humidity;BMP_temperature;BMP_pressure;BME280_temperature;BME280_humidity;BME280_pressure;Samples;Min_cycle;Max_cycle;Signal;HPM_P1;HPM_P2
2023/10/12 00:01:59;;;;;;;;;;;14.60;99.90;;;;;;4862328;29;19935;-87
2023/10/12 00:04:35;;;;;;;;;;;14.60;99.90;;;;;;4863734;29;19932;-88
2023/10/12 00:07:09;;;;;;;;;;;14.50;99.90;;;;;;4862596;29;19936;-87
2023/10/12 00:09:34;;;;;;;;;;;14.40;99.90;;;;;;4862938;29;19995;-87
2023/10/12 00:12:07;;;;;;;;;;;14.40;99.90;;;;;;4862698;29;20364;-87
2023/10/12 00:14:34;;;;;;;;;;;14.30;99.90;;;;;;4862662;29;20360;-86
2023/10/12 00:16:59;;;;;;;;;;;14.30;99.90;;;;;;4862728;29;19937;-87
2023/10/12 00:19:25;;;;;;;;;;;14.20;99.90;;;;;;4864120;29;19932;-86
2023/10/12 00:21:56;;;;;;;;;;;14.10;99.90;;;;;;4864210;29;19984;-87
2023/10/12 00:24:22;;;;;;;;;;;14.10;99.90;;;;;;4862487;29;20301;-87
2023/10/12 00:26:49;;;;;;;;;;;14.00;99.90;;;;;;4863872;29;19953;-87
2023/10/12 00:29:15;;;;;;;;;;;13.90;99.90;;;;;;4863290;29;19934;-86
2023/10/12 00:31:43;;;;;;;;;;;13.90;99.90;;;;;;4863292;29;20034;-87
2023/10/12 00:34:10;;;;;;;;;;;13.80;99.90;;;;;;4862786;29;19936;-86
2023/10/12 00:36:37;;;;;;;;;;;13.80;99.90;;;;;;4864262;29;19928;-87
2023/10/12 00:39:09;;;;;;;;;;;13.70;99.90;;;;;;4862508;29;19936;-89
2023/10/12 00:41:44;;;;;;;;;;;13.70;99.90;;;;;;4862477;29;19928;-87
2023/10/12 00:44:12;;;;;;;;;;;13.70;99.90;;;;;;4862236;29;20011;-88
2023/10/12 00:49:21;;;;;;;;;;;13.60;99.90;;;;;;4863011;29;20026;-86
2023/10/12 00:54:57;;;;;;;;;;;13.60;99.90;;;;;;4854274;29;20023;-87
2023/10/12 00:57:23;;;;;;;;;;;13.50;99.90;;;;;;4862598;29;19935;-87
2023/10/12 00:59:51;;;;;;;;;;;13.50;99.90;;;;;;4862027;29;20015;-86
2023/10/12 01:02:21;;;;;;;;;;;13.50;99.90;;;;;;4861507;29;19935;-87
2023/10/12 01:04:52;;;;;;;;;;;13.50;99.90;;;;;;4863295;29;20347;-88
2023/10/12 01:07:19;;;;;;;;;;;13.50;99.90;;;;;;4861894;29;19928;-87
2023/10/12 01:09:47;;;;;;;;;;;13.50;99.90;;;;;;4862648;29;19928;-88
2023/10/12 01:12:13;;;;;;;;;;;13.50;99.90;;;;;;4862637;29;20023;-88
2023/10/12 01:14:43;;;;;;;;;;;13.50;99.90;;;;;;4861703;29;20407;-87
2023/10/12 01:17:16;;;;;;;;;;;13.50;99.90;;;;;;4863103;29;19979;-88
2023/10/12 01:19:45;;;;;;;;;;;13.50;99.90;;;;;;4862641;29;19928;-87
2023/10/12 01:22:14;;;;;;;;;;;13.60;99.90;;;;;;4862360;29;20440;-87
2023/10/12 01:24:45;;;;;;;;;;;13.60;99.90;;;;;;4861440;29;20273;-87
2023/10/12 01:27:14;;;;;;;;;;;13.60;99.90;;;;;;4863166;29;19944;-87
2023/10/12 01:29:39;;;;;;;;;;;13.60;99.90;;;;;;4861074;29;19928;-88
2023/10/12 01:32:21;;;;;;;;;;;13.60;99.90;;;;;;4861348;29;19928;-88
2023/10/12 01:34:53;;;;;;;;;;;13.60;99.90;;;;;;4862763;29;19928;-88
2023/10/12 01:37:26;;;;;;;;;;;13.60;99.90;;;;;;4863598;29;19934;-87
2023/10/12 01:47:56;;;;;;;;;;;13.50;99.90;;;;;;4861685;29;19932;-88
2023/10/12 01:50:25;;;;;;;;;;;13.50;99.90;;;;;;4861731;29;19928;-88
2023/10/12 01:52:58;;;;;;;;;;;13.50;99.90;;;;;;4862011;29;20237;-88
2023/10/12 01:55:30;;;;;;;;;;;13.50;99.90;;;;;;4860922;29;19928;-88
2023/10/12 01:57:56;;;;;;;;;;;13.50;99.90;;;;;;4862066;29;20067;-88
2023/10/12 02:00:26;;;;;;;;;;;13.50;99.90;;;;;;4860933;29;19932;-88
2023/10/12 02:03:00;;;;;;;;;;;13.50;99.90;;;;;;4862196;29;19928;-87
2023/10/12 02:05:29;;;;;;;;;;;13.50;99.90;;;;;;4861546;29;20039;-88
2023/10/12 02:07:55;;;;;;;;;;;13.40;99.90;;;;;;4861658;29;19932;-88
2023/10/12 02:10:24;;;;;;;;;;;13.50;99.90;;;;;;4860935;29;19980;-88
2023/10/12 02:12:53;;;;;;;;;;;13.50;99.90;;;;;;4860318;29;19928;-88
2023/10/12 02:15:20;;;;;;;;;;;13.50;99.90;;;;;;4861428;29;19985;-88
2023/10/12 02:17:49;;;;;;;;;;;13.50;99.90;;;;;;4861424;29;19953;-88
2023/10/12 02:20:18;;;;;;;;;;;13.50;99.90;;;;;;4860434;29;20329;-88
2023/10/12 02:22:44;;;;;;;;;;;13.50;99.90;;;;;;4860921;29;19935;-88
2023/10/12 02:27:45;;;;;;;;;;;13.50;99.90;;;;;;4861366;29;19951;-89
2023/10/12 02:30:18;;;;;;;;;;;13.50;99.90;;;;;;4844909;29;20280;-88
2023/10/12 02:32:46;;;;;;;;;;;13.50;99.90;;;;;;4860294;29;20272;-88
2023/10/12 02:35:14;;;;;;;;;;;13.50;99.90;;;;;;4860437;29;19935;-88
2023/10/12 02:37:39;;;;;;;;;;;13.40;99.90;;;;;;4861379;29;19928;-89
2023/10/12 02:40:10;;;;;;;;;;;13.40;99.90;;;;;;4861080;29;19935;-88
2023/10/12 02:42:38;;;;;;;;;;;13.40;99.90;;;;;;4861105;29;19928;-88
2023/10/12 02:45:15;;;;;;;;;;;13.40;99.90;;;;;;4861227;29;19935;-87
2023/10/12 02:47:42;;;;;;;;;;;13.40;99.90;;;;;;4860012;29;19944;-88
2023/10/12 02:52:34;;;;;;;;;;;13.30;99.90;;;;;;4860214;29;20247;-88
2023/10/12 02:55:08;;;;;;;;;;;13.30;99.90;;;;;;4859847;29;20019;-88
2023/10/12 02:57:34;;;;;;;;;;;13.30;99.90;;;;;;4860682;29;19950;-88
2023/10/12 03:00:03;;;;;;;;;;;13.30;99.90;;;;;;4861122;29;20336;-87
2023/10/12 03:02:34;;;;;;;;;;;13.30;99.90;;;;;;4861221;29;19964;-88
2023/10/12 03:05:06;;;;;;;;;;;13.40;99.90;;;;;;4860736;29;19928;-88
2023/10/12 03:07:35;;;;;;;;;;;13.30;99.90;;;;;;4860280;29;19935;-88
2023/10/12 03:10:06;;;;;;;;;;;13.40;99.90;;;;;;4860685;29;19932;-88
2023/10/12 03:12:34;;;;;;;;;;;13.30;99.90;;;;;;4860185;29;19928;-88
2023/10/12 03:15:01;;;;;;;;;;;13.30;99.90;;;;;;4859949;29;19928;-88
2023/10/12 03:17:27;;;;;;;;;;;13.30;99.90;;;;;;4861097;29;19932;-87
2023/10/12 03:19:55;;;;;;;;;;;13.30;99.90;;;;;;4861037;29;19932;-87
2023/10/12 03:22:43;;;;;;;;;;;13.30;99.90;;;;;;4859721;29;19928;-87
2023/10/12 03:25:33;;;;;;;;;;;13.30;99.90;;;;;;4862092;29;20414;-88
2023/10/12 03:28:00;;;;;;;;;;;13.30;99.90;;;;;;4863472;29;19928;-87
2023/10/12 03:30:34;;;;;;;;;;;13.30;99.90;;;;;;4864421;29;19928;-88
2023/10/12 03:33:02;;;;;;;;;;;13.30;99.90;;;;;;4864818;29;19934;-88
2023/10/12 03:35:33;;;;;;;;;;;13.30;99.90;;;;;;4863124;29;19936;-87
2023/10/12 03:38:12;;;;;;;;;;;13.20;99.90;;;;;;4864312;29;19979;-89
2023/10/12 03:40:50;;;;;;;;;;;13.30;99.90;;;;;;4863557;29;19935;-87
2023/10/12 03:43:28;;;;;;;;;;;13.20;99.90;;;;;;4864721;29;19928;-87
2023/10/12 03:51:39;;;;;;;;;;;13.20;99.90;;;;;;4864415;29;19938;-87
2023/10/12 03:54:11;;;;;;;;;;;13.30;99.90;;;;;;4862393;29;20372;-87
2023/10/12 03:56:39;;;;;;;;;;;13.20;99.90;;;;;;4863971;29;19928;-87
2023/10/12 03:59:07;;;;;;;;;;;13.20;99.90;;;;;;4863030;29;20333;-87
2023/10/12 04:01:41;;;;;;;;;;;13.20;99.90;;;;;;4864079;29;19932;-89
2023/10/12 04:09:43;;;;;;;;;;;13.30;99.90;;;;;;4813659;29;19951;-87
2023/10/12 04:17:59;;;;;;;;;;;13.30;99.90;;;;;;4866075;29;19944;-86
2023/10/12 04:20:20;;;;;;;;;;;13.30;99.90;;;;;;4854821;29;19967;-88
2023/10/12 04:27:55;;;;;;;;;;;13.30;99.90;;;;;;4863246;29;19935;-87
2023/10/12 04:31:12;;;;;;;;;;;13.30;99.90;;;;;;4863458;29;19935;-87
2023/10/12 04:38:29;;;;;;;;;;;13.30;99.90;;;;;;4863051;29;20035;-87
2023/10/12 04:43:37;;;;;;;;;;;13.30;99.90;;;;;;4863460;29;19936;-87
2023/10/12 04:46:26;;;;;;;;;;;13.30;99.90;;;;;;4862466;29;19932;-87
2023/10/12 04:48:59;;;;;;;;;;;13.30;99.90;;;;;;4862400;29;19928;-87
2023/10/12 04:51:30;;;;;;;;;;;13.30;99.90;;;;;;4862916;29;19951;-87
2023/10/12 04:54:15;;;;;;;;;;;13.30;99.90;;;;;;4861668;29;20379;-87
2023/10/12 04:56:50;;;;;;;;;;;13.30;99.90;;;;;;4863219;29;19984;-88
2023/10/12 04:59:17;;;;;;;;;;;13.30;99.90;;;;;;4863412;29;19928;-87
2023/10/12 05:04:38;;;;;;;;;;;13.30;99.90;;;;;;4862009;29;19928;-87
2023/10/12 05:09:37;;;;;;;;;;;13.30;99.90;;;;;;4861921;29;20394;-87
2023/10/12 05:12:03;;;;;;;;;;;13.20;99.90;;;;;;4862704;29;20362;-89
2023/10/12 05:14:30;;;;;;;;;;;13.30;99.90;;;;;;4861901;29;19928;-88
2023/10/12 05:16:55;;;;;;;;;;;13.30;99.90;;;;;;4861727;29;20351;-89
2023/10/12 05:19:21;;;;;;;;;;;13.20;99.90;;;;;;4862515;29;19935;-88
2023/10/12 05:21:46;;;;;;;;;;;13.30;99.90;;;;;;4861450;29;19951;-86
2023/10/12 05:24:12;;;;;;;;;;;13.30;99.90;;;;;;4862367;29;19932;-87
2023/10/12 05:26:38;;;;;;;;;;;13.20;99.90;;;;;;4862706;29;19936;-87
2023/10/12 05:32:42;;;;;;;;;;;13.20;99.90;;;;;;4839643;29;19928;-87
2023/10/12 05:34:45;;;;;;;;;;;13.20;99.90;;;;;;4856858;29;19928;-87
2023/10/12 05:37:37;;;;;;;;;;;13.20;99.90;;;;;;4862224;29;20388;-89
2023/10/12 05:40:09;;;;;;;;;;;13.20;99.90;;;;;;4862021;29;20372;-87
2023/10/12 05:42:39;;;;;;;;;;;13.20;99.90;;;;;;4862598;29;20344;-88
2023/10/12 05:45:21;;;;;;;;;;;13.20;99.90;;;;;;4861091;29;19937;-87
2023/10/12 05:47:51;;;;;;;;;;;13.20;99.90;;;;;;4861458;29;19932;-89
2023/10/12 05:50:23;;;;;;;;;;;13.10;99.90;;;;;;4861036;29;19928;-87
2023/10/12 05:52:59;;;;;;;;;;;13.10;99.90;;;;;;4861963;29;19928;-87
2023/10/12 05:55:25;;;;;;;;;;;13.10;99.90;;;;;;4860919;29;20312;-88
2023/10/12 05:57:50;;;;;;;;;;;13.00;99.90;;;;;;4845828;29;20356;-87
2023/10/12 06:00:35;;;;;;;;;;;13.00;99.90;;;;;;4861678;29;19935;-90
2023/10/12 06:03:10;;;;;;;;;;;13.00;99.90;;;;;;4859300;29;20000;-87
2023/10/12 06:05:36;;;;;;;;;;;12.90;99.90;;;;;;4859909;29;19928;-87
2023/10/12 06:08:03;;;;;;;;;;;12.90;99.90;;;;;;4860198;29;19936;-87
2023/10/12 06:10:29;;;;;;;;;;;12.90;99.90;;;;;;4859867;29;20368;-87
2023/10/12 06:12:56;;;;;;;;;;;12.80;99.90;;;;;;4859872;29;19984;-88
2023/10/12 06:15:24;;;;;;;;;;;12.80;99.90;;;;;;4860529;29;19932;-90
2023/10/12 06:17:51;;;;;;;;;;;12.80;99.90;;;;;;4860055;29;19943;-88
2023/10/12 06:20:59;;;;;;;;;;;12.80;99.90;;;;;;4859786;29;19934;-87
2023/10/12 06:23:08;;;;;;;;;;;12.80;99.90;;;;;;4852003;29;20393;-90
2023/10/12 06:25:38;;;;;;;;;;;12.90;99.90;;;;;;4860609;29;19928;-88
2023/10/12 06:28:14;;;;;;;;;;;12.90;99.90;;;;;;4844472;29;19932;-87
2023/10/12 06:30:43;;;;;;;;;;;12.90;99.90;;;;;;4859891;29;19928;-88
2023/10/12 06:33:13;;;;;;;;;;;12.90;99.90;;;;;;4859828;29;20018;-88
2023/10/12 06:35:58;;;;;;;;;;;13.00;99.90;;;;;;4859404;29;20398;-86
2023/10/12 06:46:48;;;;;;;;;;;13.10;99.90;;;;;;4860135;29;19951;-86
2023/10/12 06:49:18;;;;;;;;;;;13.10;99.90;;;;;;4860466;29;20023;-87
2023/10/12 06:51:53;;;;;;;;;;;13.20;99.90;;;;;;4860349;29;19928;-89
2023/10/12 06:57:29;;;;;;;;;;;13.20;99.90;;;;;;4859788;29;20295;-86
2023/10/12 07:02:30;;;;;;;;;;;13.30;99.90;;;;;;4802573;29;1815121;-86
2023/10/12 07:04:56;;;;;;;;;;;13.30;99.90;;;;;;4865184;29;20027;-86
2023/10/12 07:07:40;;;;;;;;;;;13.30;99.90;;;;;;4864658;29;20031;-86
2023/10/12 07:12:37;;;;;;;;;;;13.30;99.90;;;;;;4864743;29;19984;-86
2023/10/12 07:15:10;;;;;;;;;;;13.30;99.90;;;;;;4863880;29;20099;-87
2023/10/12 07:17:36;;;;;;;;;;;13.30;99.90;;;;;;4864553;29;19928;-86
2023/10/12 07:20:02;;;;;;;;;;;13.30;99.90;;;;;;4864019;29;19984;-87
2023/10/12 07:22:31;;;;;;;;;;;13.40;99.90;;;;;;4863474;29;20394;-87
2023/10/12 07:24:56;;;;;;;;;;;13.40;99.90;;;;;;4864439;29;19951;-87
2023/10/12 07:27:23;;;;;;;;;;;13.50;99.90;;;;;;4848935;29;20356;-87
2023/10/12 07:30:02;;;;;;;;;;;13.50;99.90;;;;;;4864454;29;20438;-90
2023/10/12 07:32:31;;;;;;;;;;;13.60;99.90;;;;;;4865553;29;19990;-89
2023/10/12 07:35:05;;;;;;;;;;;13.80;99.90;;;;;;4864727;29;20383;-87
2023/10/12 07:37:31;;;;;;;;;;;13.90;99.90;;;;;;4864710;29;20031;-89
2023/10/12 07:40:12;;;;;;;;;;;14.00;99.90;;;;;;4863630;29;19984;-88
2023/10/12 07:42:40;;;;;;;;;;;14.20;99.90;;;;;;4864311;29;20372;-88
2023/10/12 07:45:06;;;;;;;;;;;14.30;99.90;;;;;;4864184;29;19935;-88
2023/10/12 07:47:31;;;;;;;;;;;14.40;99.90;;;;;;4868901;29;19935;-87
2023/10/12 07:49:58;;;;;;;;;;;14.50;99.90;;;;;;4865191;29;19928;-88
2023/10/12 07:55:17;;;;;;;;;;;14.70;99.90;;;;;;4863980;29;19979;-88
2023/10/12 07:57:44;;;;;;;;;;;14.80;99.90;;;;;;4864061;29;19979;-87
2023/10/12 08:08:08;;;;;;;;;;;14.80;99.90;;;;;;4864780;29;20331;-87
2023/10/12 08:13:15;;;;;;;;;;;14.80;99.90;;;;;;4863111;29;20432;-86
2023/10/12 08:23:50;;;;;;;;;;;14.80;99.90;;;;;;4863769;29;19935;-86
2023/10/12 08:26:47;;;;;;;;;;;14.80;99.90;;;;;;4864091;29;19934;-85
2023/10/12 08:32:03;;;;;;;;;;;14.70;99.90;;;;;;4863650;29;20348;-86
2023/10/12 08:35:16;;;;;;;;;;;14.70;99.90;;;;;;4862752;29;20392;-85
2023/10/12 08:37:17;;;;;;;;;;;14.60;99.90;;;;;;4854680;29;19928;-86
2023/10/12 08:39:50;;;;;;;;;;;14.50;99.90;;;;;;4863418;29;20378;-86
2023/10/12 08:44:54;;;;;;;;;;;14.50;99.90;;;;;;4863398;29;20039;-86
2023/10/12 08:47:31;;;;;;;;;;;14.50;99.90;;;;;;4862600;29;19932;-87
2023/10/12 08:52:30;;;;;;;;;;;14.40;99.90;;;;;;4864035;29;19928;-86
2023/10/12 08:55:03;;;;;;;;;;;14.30;99.90;;;;;;4863331;29;20026;-86
2023/10/12 08:57:42;;;;;;;;;;;14.30;99.90;;;;;;4863162;29;19928;-86
2023/10/12 09:00:24;;;;;;;;;;;14.40;99.90;;;;;;4863285;29;19934;-85
2023/10/12 09:02:58;;;;;;;;;;;14.40;99.90;;;;;;4863782;29;20007;-85
2023/10/12 09:05:30;;;;;;;;;;;14.40;99.90;;;;;;4862793;29;19932;-86
2023/10/12 09:08:24;;;;;;;;;;;14.40;99.90;;;;;;4861897;29;19932;-86
2023/10/12 09:13:34;;;;;;;;;;;14.50;99.90;;;;;;4862230;29;19938;-86
2023/10/12 09:16:04;;;;;;;;;;;14.60;99.90;;;;;;4862959;29;19935;-85
2023/10/12 09:18:30;;;;;;;;;;;14.70;99.90;;;;;;4862909;29;20026;-86
2023/10/12 09:23:45;;;;;;;;;;;14.80;99.90;;;;;;4862076;29;19928;-84
2023/10/12 09:26:15;;;;;;;;;;;14.80;99.90;;;;;;4862752;29;19934;-85
2023/10/12 09:31:16;;;;;;;;;;;15.00;99.90;;;;;;4862064;29;19975;-83
2023/10/12 09:33:45;;;;;;;;;;;14.90;99.90;;;;;;4861777;29;19935;-83
2023/10/12 09:36:11;;;;;;;;;;;14.90;99.90;;;;;;4863108;29;19929;-84
2023/10/12 09:38:38;;;;;;;;;;;15.00;99.90;;;;;;4862595;29;19928;-84
2023/10/12 09:41:08;;;;;;;;;;;15.10;99.90;;;;;;4861367;29;19988;-84
2023/10/12 09:43:36;;;;;;;;;;;15.30;99.90;;;;;;4861284;29;19932;-84
2023/10/12 09:46:06;;;;;;;;;;;15.50;99.90;;;;;;4862440;29;20336;-83
2023/10/12 09:48:38;;;;;;;;;;;15.70;99.90;;;;;;4862908;29;19928;-83
2023/10/12 09:51:07;;;;;;;;;;;15.70;99.90;;;;;;4862166;29;20026;-84
2023/10/12 09:53:35;;;;;;;;;;;15.70;99.90;;;;;;4861301;29;19980;-85
2023/10/12 09:56:18;;;;;;;;;;;15.70;99.90;;;;;;4861542;29;19928;-85
2023/10/12 09:58:51;;;;;;;;;;;15.70;99.90;;;;;;4861980;29;19932;-86
2023/10/12 10:01:22;;;;;;;;;;;15.70;99.90;;;;;;4861122;29;19967;-84
2023/10/12 10:03:48;;;;;;;;;;;15.80;99.90;;;;;;4861198;29;19929;-84
2023/10/12 10:06:45;;;;;;;;;;;15.80;99.90;;;;;;4862792;29;20481;-84
2023/10/12 10:11:59;;;;;;;;;;;15.70;99.90;;;;;;4848916;29;19983;-85
2023/10/12 10:14:26;;;;;;;;;;;15.80;99.90;;;;;;4860858;29;19929;-84
2023/10/12 10:16:59;;;;;;;;;;;15.70;99.90;;;;;;4862063;29;20022;-84
2023/10/12 10:19:28;;;;;;;;;;;15.70;99.90;;;;;;4861925;29;19943;-83
2023/10/12 10:24:57;;;;;;;;;;;15.70;99.90;;;;;;4853350;29;20156;-87
2023/10/12 10:27:34;;;;;;;;;;;15.80;99.90;;;;;;4860664;29;19928;-84
2023/10/12 10:30:18;;;;;;;;;;;15.90;99.90;;;;;;4862022;29;19928;-84
2023/10/12 10:32:45;;;;;;;;;;;15.90;99.90;;;;;;4845252;29;19932;-86
2023/10/12 10:35:18;;;;;;;;;;;15.90;99.90;;;;;;4861501;29;19932;-84
2023/10/12 10:37:57;;;;;;;;;;;15.90;99.90;;;;;;4861801;29;19939;-84
2023/10/12 10:40:45;;;;;;;;;;;16.00;99.90;;;;;;4861609;29;20383;-84
2023/10/12 10:43:14;;;;;;;;;;;16.00;99.90;;;;;;4860770;29;20295;-84
2023/10/12 10:45:42;;;;;;;;;;;15.90;99.90;;;;;;4860731;29;19928;-84
2023/10/12 10:48:10;;;;;;;;;;;15.90;99.90;;;;;;4860652;29;20292;-84
2023/10/12 10:50:43;;;;;;;;;;;15.80;99.90;;;;;;4846405;29;19928;-84
2023/10/12 10:53:09;;;;;;;;;;;15.80;99.90;;;;;;4860886;29;20437;-84
2023/10/12 10:55:35;;;;;;;;;;;15.70;99.90;;;;;;4861412;29;20022;-84
2023/10/12 10:58:01;;;;;;;;;;;15.60;99.90;;;;;;4861403;29;19928;-84
2023/10/12 11:00:39;;;;;;;;;;;15.60;99.90;;;;;;4860742;29;19928;-85
2023/10/12 11:03:05;;;;;;;;;;;15.60;99.90;;;;;;4861611;29;19929;-83
2023/10/12 11:05:30;;;;;;;;;;;15.50;99.90;;;;;;4860574;29;19932;-84
2023/10/12 11:08:12;;;;;;;;;;;15.50;99.90;;;;;;4860455;29;19928;-83
2023/10/12 11:11:17;;;;;;;;;;;15.50;99.90;;;;;;4860729;29;19980;-84
2023/10/12 11:13:25;;;;;;;;;;;15.60;99.90;;;;;;4860238;29;19934;-84
2023/10/12 11:15:50;;;;;;;;;;;15.50;99.90;;;;;;4861199;29;19989;-84
2023/10/12 11:18:17;;;;;;;;;;;15.50;99.90;;;;;;4860401;29;19972;-84
2023/10/12 11:20:49;;;;;;;;;;;15.60;99.90;;;;;;4861003;29;19939;-83
2023/10/12 11:23:16;;;;;;;;;;;15.70;99.90;;;;;;4860343;29;19935;-84
2023/10/12 11:25:42;;;;;;;;;;;15.70;99.90;;;;;;4845036;29;19935;-84
2023/10/12 11:28:21;;;;;;;;;;;15.60;99.90;;;;;;4860481;29;19928;-84
2023/10/12 11:30:48;;;;;;;;;;;15.60;99.90;;;;;;4861243;29;19932;-83
2023/10/12 11:33:16;;;;;;;;;;;15.60;99.90;;;;;;4844928;29;19982;-85
2023/10/12 11:35:43;;;;;;;;;;;15.60;99.90;;;;;;4860011;29;19980;-85
2023/10/12 11:38:17;;;;;;;;;;;15.50;99.90;;;;;;4860204;29;20380;-84
2023/10/12 11:40:43;;;;;;;;;;;15.50;99.90;;;;;;4845027;29;20092;-83
2023/10/12 11:43:09;;;;;;;;;;;15.40;99.90;;;;;;4861099;29;19928;-84
2023/10/12 11:45:35;;;;;;;;;;;15.40;99.90;;;;;;4861408;29;20023;-86
2023/10/12 11:48:20;;;;;;;;;;;15.40;99.90;;;;;;4864117;29;20023;-84
2023/10/12 11:50:48;;;;;;;;;;;15.40;99.90;;;;;;4863938;29;19928;-83
2023/10/12 11:53:17;;;;;;;;;;;15.40;99.90;;;;;;4863424;29;20023;-83
2023/10/12 11:55:49;;;;;;;;;;;15.50;99.90;;;;;;4863737;29;19938;-84
2023/10/12 11:58:19;;;;;;;;;;;15.50;99.90;;;;;;4863316;29;19928;-86
2023/10/12 12:00:48;;;;;;;;;;;15.50;99.90;;;;;;4864556;29;19935;-84
2023/10/12 12:03:15;;;;;;;;;;;15.50;99.90;;;;;;4862258;29;19932;-84
2023/10/12 12:05:42;;;;;;;;;;;15.50;99.90;;;;;;4862897;29;20026;-84
2023/10/12 12:08:10;;;;;;;;;;;15.50;99.90;;;;;;4863098;29;19928;-84
2023/10/12 12:10:44;;;;;;;;;;;15.30;99.90;;;;;;4864470;29;19935;-85
2023/10/12 12:13:12;;;;;;;;;;;15.30;99.90;;;;;;4847995;29;20360;-84
2023/10/12 12:15:43;;;;;;;;;;;15.10;99.90;;;;;;4863857;29;19935;-86
2023/10/12 12:18:21;;;;;;;;;;;15.00;99.90;;;;;;4863510;29;19983;-84
2023/10/12 12:20:47;;;;;;;;;;;14.90;99.90;;;;;;4863589;29;20035;-84
2023/10/12 12:23:17;;;;;;;;;;;14.80;99.90;;;;;;4863812;29;19932;-84
2023/10/12 12:25:42;;;;;;;;;;;14.70;99.90;;;;;;4863080;29;20435;-88
2023/10/12 12:28:15;;;;;;;;;;;14.70;99.90;;;;;;4863750;29;20011;-85
2023/10/12 12:30:55;;;;;;;;;;;14.50;99.90;;;;;;4863856;29;19928;-85
2023/10/12 12:33:21;;;;;;;;;;;14.50;99.90;;;;;;4863315;29;20368;-86
2023/10/12 12:35:47;;;;;;;;;;;14.50;99.90;;;;;;4863542;29;19928;-86
2023/10/12 12:38:28;;;;;;;;;;;14.40;99.90;;;;;;4863395;29;20392;-85
2023/10/12 12:40:54;;;;;;;;;;;14.40;99.90;;;;;;4863511;29;19932;-86
2023/10/12 12:43:20;;;;;;;;;;;14.20;99.90;;;;;;4862598;29;19928;-86
2023/10/12 12:45:46;;;;;;;;;;;14.20;99.90;;;;;;4862675;29;19928;-85
2023/10/12 12:48:11;;;;;;;;;;;14.10;99.90;;;;;;4863477;29;19928;-85
2023/10/12 12:50:37;;;;;;;;;;;14.00;99.90;;;;;;4863707;29;19976;-86
2023/10/12 12:53:06;;;;;;;;;;;13.90;99.90;;;;;;4862749;29;19932;-87
2023/10/12 12:55:32;;;;;;;;;;;13.90;99.90;;;;;;4862385;29;19935;-85
2023/10/12 12:57:58;;;;;;;;;;;13.90;99.90;;;;;;4862346;29;19928;-85
2023/10/12 13:00:25;;;;;;;;;;;13.90;99.90;;;;;;4863288;29;19971;-85
2023/10/12 13:02:50;;;;;;;;;;;13.90;99.90;;;;;;4863105;29;19956;-84
2023/10/12 13:05:16;;;;;;;;;;;13.90;99.90;;;;;;4862262;29;19932;-84
2023/10/12 13:07:43;;;;;;;;;;;13.90;99.90;;;;;;4863114;29;19929;-84
2023/10/12 13:10:11;;;;;;;;;;;13.90;99.90;;;;;;4863164;29;19928;-84
2023/10/12 13:12:40;;;;;;;;;;;13.90;99.90;;;;;;4863765;29;19928;-83
2023/10/12 13:15:09;;;;;;;;;;;13.80;99.90;;;;;;4862378;29;20035;-83
2023/10/12 13:17:36;;;;;;;;;;;13.80;99.90;;;;;;4862164;29;20382;-85
2023/10/12 13:20:02;;;;;;;;;;;13.80;99.90;;;;;;4861932;29;19928;-84
2023/10/12 13:22:28;;;;;;;;;;;13.80;99.90;;;;;;4861797;29;19979;-84
2023/10/12 13:24:59;;;;;;;;;;;13.80;99.90;;;;;;4861903;29;20253;-84
2023/10/12 13:27:27;;;;;;;;;;;13.80;99.90;;;;;;4862946;29;20375;-83
2023/10/12 13:29:57;;;;;;;;;;;13.80;99.90;;;;;;4861904;29;19993;-84
2023/10/12 13:32:22;;;;;;;;;;;13.70;99.90;;;;;;4862673;29;19928;-85
2023/10/12 13:34:48;;;;;;;;;;;13.80;99.90;;;;;;4861704;29;20447;-86
2023/10/12 13:37:13;;;;;;;;;;;13.70;99.90;;;;;;4862504;29;19932;-85
2023/10/12 13:39:39;;;;;;;;;;;13.70;99.90;;;;;;4862797;29;20007;-85
2023/10/12 13:42:11;;;;;;;;;;;13.60;99.90;;;;;;4846713;29;20395;-85
2023/10/12 13:44:39;;;;;;;;;;;13.70;99.90;;;;;;4861577;29;20020;-85
2023/10/12 13:47:07;;;;;;;;;;;13.70;99.90;;;;;;4862453;29;19928;-84
2023/10/12 13:49:34;;;;;;;;;;;13.70;99.90;;;;;;4862427;29;19928;-84
2023/10/12 13:52:03;;;;;;;;;;;13.60;99.90;;;;;;4861308;29;20015;-85
2023/10/12 13:54:31;;;;;;;;;;;13.60;99.90;;;;;;4862221;29;19985;-85
2023/10/12 13:57:01;;;;;;;;;;;13.50;99.90;;;;;;4862193;29;19940;-87
2023/10/12 13:59:27;;;;;;;;;;;13.50;99.90;;;;;;4846050;29;20026;-86
2023/10/12 14:01:53;;;;;;;;;;;13.50;99.90;;;;;;4860636;29;20032;-86
2023/10/12 14:04:28;;;;;;;;;;;13.50;99.90;;;;;;4861915;29;19983;-85
2023/10/12 14:07:00;;;;;;;;;;;13.50;99.90;;;;;;4862057;29;20451;-85
2023/10/12 14:09:27;;;;;;;;;;;13.50;99.90;;;;;;4847065;29;19932;-86
2023/10/12 14:11:54;;;;;;;;;;;13.50;99.90;;;;;;4861238;29;19972;-85
2023/10/12 14:14:19;;;;;;;;;;;13.50;99.90;;;;;;4861184;29;19935;-85
2023/10/12 14:16:45;;;;;;;;;;;13.50;99.90;;;;;;4862062;29;19928;-85
2023/10/12 14:19:11;;;;;;;;;;;13.40;99.90;;;;;;4860993;29;19936;-85
2023/10/12 14:21:39;;;;;;;;;;;13.50;99.90;;;;;;4862115;29;19928;-86
2023/10/12 14:24:05;;;;;;;;;;;13.40;99.90;;;;;;4861859;29;19935;-86
2023/10/12 14:26:35;;;;;;;;;;;13.40;99.90;;;;;;4861830;29;19932;-86
2023/10/12 14:29:05;;;;;;;;;;;13.40;99.90;;;;;;4861551;29;20307;-87
2023/10/12 14:31:31;;;;;;;;;;;13.40;99.90;;;;;;4860874;29;20030;-86
2023/10/12 14:33:59;;;;;;;;;;;13.40;99.90;;;;;;4862221;29;20026;-86
2023/10/12 14:36:26;;;;;;;;;;;13.40;99.90;;;;;;4860734;29;19929;-86
2023/10/12 14:38:55;;;;;;;;;;;13.40;99.90;;;;;;4861707;29;19984;-86
2023/10/12 14:41:21;;;;;;;;;;;13.50;99.90;;;;;;4860802;29;19928;-86
2023/10/12 14:43:47;;;;;;;;;;;13.50;99.90;;;;;;4861592;29;19943;-86
2023/10/12 14:46:13;;;;;;;;;;;13.50;99.90;;;;;;4861534;29;19935;-84
2023/10/12 14:48:43;;;;;;;;;;;13.40;99.90;;;;;;4861302;29;20003;-87
2023/10/12 14:51:12;;;;;;;;;;;13.40;99.90;;;;;;4861516;29;20368;-87
2023/10/12 14:53:42;;;;;;;;;;;13.40;99.90;;;;;;4860904;29;19928;-87
2023/10/12 14:56:09;;;;;;;;;;;13.40;99.90;;;;;;4860406;29;19928;-87
2023/10/12 14:58:35;;;;;;;;;;;13.40;99.90;;;;;;4860504;29;19928;-88
2023/10/12 15:01:08;;;;;;;;;;;13.40;99.90;;;;;;4861343;29;19935;-88
2023/10/12 15:03:34;;;;;;;;;;;13.40;99.90;;;;;;4859792;29;19940;-87
2023/10/12 15:06:01;;;;;;;;;;;13.30;99.90;;;;;;4861491;29;19975;-87
2023/10/12 15:08:27;;;;;;;;;;;13.30;99.90;;;;;;4860787;29;19983;-89
2023/10/12 15:10:56;;;;;;;;;;;13.30;99.90;;;;;;4860917;29;19985;-86
2023/10/12 15:13:22;;;;;;;;;;;13.20;99.90;;;;;;4862064;29;19928;-87
2023/10/12 15:15:49;;;;;;;;;;;13.20;99.90;;;;;;4860372;29;19928;-87
2023/10/12 15:18:16;;;;;;;;;;;13.20;99.90;;;;;;4861188;29;19943;-87
2023/10/12 15:20:44;;;;;;;;;;;13.20;99.90;;;;;;4860631;29;19932;-88
2023/10/12 15:23:10;;;;;;;;;;;13.20;99.90;;;;;;4864817;29;19934;-87
2023/10/12 15:25:36;;;;;;;;;;;13.20;99.90;;;;;;4864587;29;20015;-87
2023/10/12 15:28:02;;;;;;;;;;;13.20;99.90;;;;;;4865036;29;19943;-89
2023/10/12 15:30:28;;;;;;;;;;;13.20;99.90;;;;;;4864910;29;19928;-89
2023/10/12 15:32:56;;;;;;;;;;;13.10;99.90;;;;;;4865174;29;19932;-87
2023/10/12 15:35:25;;;;;;;;;;;13.00;99.90;;;;;;4864456;29;19975;-87
2023/10/12 15:37:51;;;;;;;;;;;13.00;99.90;;;;;;4863989;29;20065;-87
2023/10/12 15:40:25;;;;;;;;;;;13.00;99.90;;;;;;4864546;29;19929;-87
2023/10/12 15:42:52;;;;;;;;;;;12.90;99.90;;;;;;4864064;29;20395;-96
2023/10/12 15:45:22;;;;;;;;;;;12.90;99.90;;;;;;4849945;29;19929;-96
2023/10/12 15:47:48;;;;;;;;;;;12.90;99.90;;;;;;4849388;29;19976;-91
2023/10/12 15:50:14;;;;;;;;;;;12.90;99.90;;;;;;4863845;29;19932;-92
2023/10/12 15:52:42;;;;;;;;;;;12.90;99.90;;;;;;4855238;29;19940;-94
2023/10/12 15:55:08;;;;;;;;;;;13.00;99.90;;;;;;4837806;29;20260;-90
2023/10/12 15:57:34;;;;;;;;;;;13.10;99.90;;;;;;4864602;29;19998;-89
2023/10/12 16:00:00;;;;;;;;;;;13.00;99.90;;;;;;4867118;29;19936;-89
2023/10/12 16:02:29;;;;;;;;;;;12.90;99.90;;;;;;4865788;29;20356;-89
2023/10/12 16:04:55;;;;;;;;;;;12.90;99.90;;;;;;4848295;29;19928;-87
2023/10/12 16:07:21;;;;;;;;;;;13.00;99.90;;;;;;4848410;29;20015;-87
2023/10/12 16:09:46;;;;;;;;;;;13.00;99.90;;;;;;4866108;29;19952;-87
2023/10/12 16:12:19;;;;;;;;;;;13.00;99.90;;;;;;4871758;29;19935;-89
2023/10/12 16:14:49;;;;;;;;;;;13.00;99.90;;;;;;4870746;29;19928;-96
2023/10/12 16:17:15;;;;;;;;;;;13.00;99.90;;;;;;4867062;29;20023;-87
2023/10/12 16:19:43;;;;;;;;;;;12.90;99.90;;;;;;4866599;29;19983;-89
2023/10/12 16:22:08;;;;;;;;;;;12.90;99.90;;;;;;4866106;29;19928;-87
2023/10/12 16:24:34;;;;;;;;;;;12.90;99.90;;;;;;4863425;29;20026;-88
2023/10/12 16:27:00;;;;;;;;;;;12.90;99.90;;;;;;4864155;29;20321;-87
2023/10/12 16:29:25;;;;;;;;;;;13.00;99.90;;;;;;4863932;29;19928;-88